Nds Darwin — 2GRU5 — position and weather

sailwx.info

Track history (hours):
 
Tides and Currents Weather Stations Pressure Air Temp Water Temp Dewpoint Dewpoint Depression Visibility Wind Speed Wind Dir Waves Ship Positions

Nds Darwin

Last reported at 2018-Jun-20 11:48 UTC. Time now 2018-Jun-20 15:06 UTC.
Position N 47°36' W 126°53'.

Length 18 m; draft 1.5 m.

Type: Sailing vessel. MMSI: 235099968.

Date/timePositionNaut miles runAvg speedWind from/ knotsBaromVisibWave heightAir tempDewpointWater temp
2018-Jun-20 11:48N 47°36' W 126°53'2 5.1
2018-Jun-20 11:21N 47°35' W 126°55'6 5.3
2018-Jun-20 10:14N 47°31' W 127°02'3 5.2
2018-Jun-20 09:45N 47°29' W 127°05'2 5.0
2018-Jun-20 09:27N 47°28' W 127°07'2 4.9
2018-Jun-20 09:00N 47°27' W 127°10'3 5.1
2018-Jun-20 08:27N 47°25' W 127°13'3 4.8
2018-Jun-20 07:52N 47°23' W 127°16'3 5.1
2018-Jun-20 07:12N 47°21' W 127°20'1 5.3
2018-Jun-20 06:58N 47°21' W 127°21'8 5.3
2018-Jun-20 05:25N 47°16' W 127°31'5 5.5
2018-Jun-20 04:25N 47°13' W 127°38'15 5.3
2018-Jun-20 01:32N 47°04' W 127°57'1 5.1
2018-Jun-20 01:23N 47°04' W 127°57'6 5.2
2018-Jun-20 00:10N 46°60' W 128°05'4 5.3
2018-Jun-19 23:21N 46°57' W 128°10'13 5.1
2018-Jun-19 20:45N 46°50' W 128°26'2 5.1
2018-Jun-19 20:22N 46°48' W 128°28'5 5.4
2018-Jun-19 19:26N 46°46' W 128°34'2 5.4
2018-Jun-19 18:59N 46°44' W 128°37'7 5.2
2018-Jun-19 17:44N 46°41' W 128°45'1 4.9
2018-Jun-19 17:27N 46°40' W 128°47'2 5.1
2018-Jun-19 16:58N 46°39' W 128°50'  
Track history (hours):
 
Tides and Currents Weather Stations Pressure Air Temp Water Temp Dewpoint Dewpoint Depression Visibility Wind Speed Wind Dir Waves Ship Positions

Nds Darwin

Last reported at 2018-Jun-20 11:48 UTC. Time now 2018-Jun-20 15:06 UTC.
Position N 47°36' W 126°53'.

Length 18 m; draft 1.5 m.

Type: Sailing vessel. MMSI: 235099968.

Date/timePositionNaut miles runAvg speedWind from/ knotsBaromVisibWave heightAir tempDewpointWater temp
2018-Jun-20 11:48N 47°36' W 126°53'2 5.1
2018-Jun-20 11:21N 47°35' W 126°55'6 5.3
2018-Jun-20 10:14N 47°31' W 127°02'3 5.2
2018-Jun-20 09:45N 47°29' W 127°05'2 5.0
2018-Jun-20 09:27N 47°28' W 127°07'2 4.9
2018-Jun-20 09:00N 47°27' W 127°10'3 5.1
2018-Jun-20 08:27N 47°25' W 127°13'3 4.8
2018-Jun-20 07:52N 47°23' W 127°16'3 5.1
2018-Jun-20 07:12N 47°21' W 127°20'1 5.3
2018-Jun-20 06:58N 47°21' W 127°21'8 5.3
2018-Jun-20 05:25N 47°16' W 127°31'5 5.5
2018-Jun-20 04:25N 47°13' W 127°38'15 5.3
2018-Jun-20 01:32N 47°04' W 127°57'1 5.1
2018-Jun-20 01:23N 47°04' W 127°57'6 5.2
2018-Jun-20 00:10N 46°60' W 128°05'4 5.3
2018-Jun-19 23:21N 46°57' W 128°10'13 5.1
2018-Jun-19 20:45N 46°50' W 128°26'2 5.1
2018-Jun-19 20:22N 46°48' W 128°28'5 5.4
2018-Jun-19 19:26N 46°46' W 128°34'2 5.4
2018-Jun-19 18:59N 46°44' W 128°37'7 5.2
2018-Jun-19 17:44N 46°41' W 128°45'1 4.9
2018-Jun-19 17:27N 46°40' W 128°47'2 5.1
2018-Jun-19 16:58N 46°39' W 128°50'  

Dump ship's entire track history